createdAt,value
2022-10-13T00:01:16.912Z,75.63
2022-10-13T00:03:47.226Z,65.88
2022-10-13T00:06:23.339Z,65.15
2022-10-13T00:08:51.200Z,56.28
2022-10-13T00:11:22.405Z,53.35
2022-10-13T00:13:50.659Z,54.88
2022-10-13T00:16:21.051Z,57.60
2022-10-13T00:18:48.675Z,56.90
2022-10-13T00:21:19.815Z,61.88
2022-10-13T00:23:50.035Z,54.60
2022-10-13T00:26:23.062Z,65.82
2022-10-13T00:28:52.826Z,53.03
2022-10-13T00:31:23.304Z,60.45
2022-10-13T00:33:50.943Z,65.05
2022-10-13T00:36:20.321Z,62.90
2022-10-13T00:38:47.989Z,62.70
2022-10-13T00:41:15.551Z,57.13
2022-10-13T00:44:01.346Z,50.38
2022-10-13T00:46:34.979Z,49.08
2022-10-13T00:49:09.640Z,51.10
2022-10-13T00:51:41.276Z,54.33
2022-10-13T00:54:11.570Z,51.08
2022-10-13T00:56:40.051Z,52.28
2022-10-13T00:59:15.131Z,52.45
2022-10-13T01:01:42.966Z,47.13
2022-10-13T01:04:11.100Z,46.85
2022-10-13T01:06:38.301Z,46.08
2022-10-13T01:09:08.746Z,45.60
2022-10-13T01:11:41.671Z,41.22
2022-10-13T01:14:11.985Z,38.72
2022-10-13T01:17:21.147Z,42.20
2022-10-13T01:20:15.129Z,45.58
2022-10-13T01:22:53.613Z,48.60
2022-10-13T01:25:51.853Z,46.75
2022-10-13T01:28:53.396Z,40.70
2022-10-13T01:31:24.425Z,48.00
2022-10-13T01:34:18.686Z,42.22
2022-10-13T01:36:59.498Z,43.95
2022-10-13T01:39:45.550Z,41.45
2022-10-13T01:42:20.258Z,43.85
2022-10-13T01:44:53.041Z,40.95
2022-10-13T01:47:21.840Z,44.05
2022-10-13T01:49:52.229Z,45.92
2022-10-13T01:52:22.770Z,41.25
2022-10-13T01:54:52.239Z,38.47
2022-10-13T01:57:35.995Z,41.92
2022-10-13T02:00:14.615Z,39.10
2022-10-13T02:03:27.825Z,44.17
2022-10-13T02:06:19.786Z,48.03
2022-10-13T02:08:58.715Z,44.42
2022-10-13T02:11:28.237Z,42.47
2022-10-13T02:14:28.229Z,42.30
2022-10-13T02:16:57.605Z,47.38
2022-10-13T02:19:25.249Z,47.30
2022-10-13T02:21:53.474Z,46.97
2022-10-13T02:24:20.854Z,45.95
2022-10-13T02:26:48.651Z,45.92
2022-10-13T02:29:20.194Z,42.10
2022-10-13T02:31:47.525Z,41.58
2022-10-13T02:34:15.445Z,40.78
2022-10-13T02:36:46.748Z,40.95
2022-10-13T02:39:14.669Z,45.58
2022-10-13T02:41:42.223Z,41.05
2022-10-13T02:44:09.687Z,43.08
2022-10-13T02:46:43.037Z,41.40
2022-10-13T02:49:10.875Z,37.83
2022-10-13T02:51:40.442Z,36.35
2022-10-13T02:54:08.346Z,45.17
2022-10-13T02:56:35.778Z,41.22
2022-10-13T02:59:03.206Z,41.25
2022-10-13T03:01:30.672Z,43.28
2022-10-13T03:03:57.870Z,38.83
2022-10-13T03:06:25.352Z,40.47
2022-10-13T03:08:52.781Z,37.53
2022-10-13T03:11:19.955Z,38.28
2022-10-13T03:13:47.197Z,40.67
2022-10-13T03:16:14.523Z,39.35
2022-10-13T03:18:41.774Z,34.55
2022-10-13T03:21:10.816Z,36.20
2022-10-13T03:23:40.422Z,35.03
2022-10-13T03:26:07.717Z,35.10
2022-10-13T03:28:35.012Z,37.80
2022-10-13T03:31:08.943Z,37.28
2022-10-13T03:33:36.376Z,49.15
2022-10-13T03:36:05.838Z,36.03
2022-10-13T03:38:34.835Z,40.88
2022-10-13T03:41:09.919Z,38.53
2022-10-13T03:43:38.167Z,36.95
2022-10-13T03:46:07.041Z,38.85
2022-10-13T03:48:36.135Z,32.08
2022-10-13T03:51:12.831Z,36.42
2022-10-13T03:53:45.731Z,33.53
2022-10-13T03:56:16.444Z,34.25
2022-10-13T03:58:54.453Z,42.50
2022-10-13T04:01:23.995Z,38.72
2022-10-13T04:03:53.942Z,39.03
2022-10-13T04:06:21.385Z,38.17
2022-10-13T04:08:49.478Z,36.25
2022-10-13T04:11:17.621Z,40.05
2022-10-13T04:13:52.271Z,39.40
2022-10-13T04:16:25.083Z,40.63
2022-10-13T04:19:04.045Z,45.95
2022-10-13T04:21:33.932Z,42.72
2022-10-13T04:24:02.142Z,42.00
2022-10-13T04:26:32.428Z,45.08
2022-10-13T04:29:08.794Z,39.25
2022-10-13T04:31:36.928Z,38.70
2022-10-13T04:34:04.746Z,40.70
2022-10-13T04:36:32.126Z,37.10
2022-10-13T04:38:59.305Z,39.08
2022-10-13T04:41:26.492Z,36.28
2022-10-13T04:43:55.055Z,36.65
2022-10-13T04:46:25.540Z,40.22
2022-10-13T04:48:55.713Z,37.92
2022-10-13T04:51:29.399Z,34.83
2022-10-13T04:53:58.831Z,39.25
2022-10-13T04:56:26.845Z,39.20
2022-10-13T04:58:54.261Z,45.92
2022-10-13T05:01:24.796Z,33.17
2022-10-13T05:03:57.120Z,40.10
2022-10-13T05:06:27.424Z,35.83
2022-10-13T05:08:57.786Z,34.92
2022-10-13T05:11:27.197Z,35.15
2022-10-13T05:13:55.462Z,31.17
2022-10-13T05:16:23.313Z,32.95
2022-10-13T05:18:52.539Z,33.72
2022-10-13T05:21:28.386Z,31.52
2022-10-13T05:23:58.722Z,35.45
2022-10-13T05:26:32.034Z,32.00
2022-10-13T05:29:00.850Z,32.45
2022-10-13T05:31:31.889Z,33.92
2022-10-13T05:34:00.060Z,33.13
2022-10-13T05:36:34.567Z,34.60
2022-10-13T05:39:07.500Z,29.48
2022-10-13T05:41:35.305Z,31.05
2022-10-13T05:44:08.298Z,28.23
2022-10-13T05:46:40.624Z,31.90
2022-10-13T05:49:07.887Z,32.47
2022-10-13T05:51:39.747Z,29.65
2022-10-13T05:54:06.914Z,33.13
2022-10-13T05:56:42.345Z,31.52
2022-10-13T05:59:14.017Z,32.05
2022-10-13T06:01:42.554Z,32.50
2022-10-13T06:04:34.681Z,33.92
2022-10-13T06:07:01.974Z,39.55
2022-10-13T06:09:40.417Z,32.47
2022-10-13T06:12:08.603Z,31.23
2022-10-13T06:14:36.530Z,28.70
2022-10-13T06:17:07.239Z,28.90
2022-10-13T06:19:34.612Z,27.00
2022-10-13T06:22:08.394Z,27.23
2022-10-13T06:24:35.553Z,32.38
2022-10-13T06:27:04.763Z,27.90
2022-10-13T06:29:33.506Z,25.67
2022-10-13T06:32:00.753Z,29.13
2022-10-13T06:34:28.001Z,27.00
2022-10-13T06:36:55.776Z,27.15
2022-10-13T06:39:23.011Z,29.95
2022-10-13T06:41:50.953Z,29.10
2022-10-13T06:44:18.202Z,22.75
2022-10-13T06:46:45.852Z,24.50
2022-10-13T06:49:13.099Z,25.23
2022-10-13T06:51:40.474Z,22.88
2022-10-13T06:54:07.686Z,25.27
2022-10-13T06:56:35.215Z,20.70
2022-10-13T06:59:10.644Z,26.75
2022-10-13T07:01:41.580Z,23.73
2022-10-13T07:04:12.689Z,33.65
2022-10-13T07:06:40.149Z,36.75
2022-10-13T07:09:08.731Z,28.65
2022-10-13T07:11:36.427Z,26.50
2022-10-13T07:14:03.721Z,27.85
2022-10-13T07:16:31.476Z,25.98
2022-10-13T07:18:58.772Z,23.02
2022-10-13T07:21:26.337Z,27.38
2022-10-13T07:23:53.729Z,24.50
2022-10-13T07:26:21.622Z,38.40
2022-10-13T07:28:49.258Z,28.50
2022-10-13T07:31:18.844Z,29.10
2022-10-13T07:33:50.509Z,31.55
2022-10-13T07:36:18.634Z,28.00
2022-10-13T07:38:46.454Z,25.73
2022-10-13T07:41:14.722Z,29.45
2022-10-13T07:43:42.647Z,32.00
2022-10-13T07:46:12.938Z,33.70
2022-10-13T07:48:40.658Z,30.20
2022-10-13T07:51:11.520Z,27.85
2022-10-13T07:53:40.240Z,29.15
2022-10-13T07:56:10.606Z,30.63
2022-10-13T07:58:40.542Z,27.58
2022-10-13T08:01:08.697Z,28.73
2022-10-13T08:03:41.845Z,25.00
2022-10-13T08:06:17.021Z,25.88
2022-10-13T08:08:44.564Z,26.52
2022-10-13T08:11:16.967Z,22.77
2022-10-13T08:13:52.018Z,26.33
2022-10-13T08:16:22.688Z,33.83
2022-10-13T08:18:50.669Z,26.02
2022-10-13T08:24:07.833Z,30.30
2022-10-13T08:26:35.064Z,28.63
2022-10-13T08:29:20.690Z,31.98
2022-10-13T08:34:17.348Z,26.00
2022-10-13T08:36:44.586Z,26.13
2022-10-13T08:39:12.884Z,26.45
2022-10-13T08:41:46.868Z,21.10
2022-10-13T08:47:28.955Z,21.02
2022-10-13T08:50:03.487Z,21.65
2022-10-13T08:53:00.683Z,22.08
2022-10-13T08:55:31.718Z,20.48
2022-10-13T08:58:00.809Z,21.73
2022-10-13T09:00:30.009Z,20.75
2022-10-13T09:03:17.399Z,23.60
2022-10-13T09:05:56.570Z,19.35
2022-10-13T09:08:25.233Z,30.50
2022-10-13T09:10:53.279Z,17.20
2022-10-13T09:13:22.751Z,19.27
2022-10-13T09:15:52.775Z,19.38
2022-10-13T09:18:29.619Z,21.83
2022-10-13T09:21:18.435Z,16.65
2022-10-13T09:23:46.450Z,21.63
2022-10-13T09:26:21.440Z,19.52
2022-10-13T09:28:49.824Z,18.10
2022-10-13T09:31:26.257Z,18.73
2022-10-13T09:34:14.893Z,17.35
2022-10-13T09:37:35.559Z,19.95
2022-10-13T09:40:16.880Z,15.90
2022-10-13T09:42:52.028Z,14.32
2022-10-13T09:45:22.322Z,13.63
2022-10-13T09:48:02.972Z,11.18
2022-10-13T09:50:32.478Z,11.88
2022-10-13T09:53:24.226Z,12.30
2022-10-13T09:56:09.135Z,14.15
2022-10-13T10:01:22.937Z,9.25
2022-10-13T10:03:51.343Z,12.60
2022-10-13T10:06:19.428Z,12.05
2022-10-13T10:09:02.741Z,11.25
2022-10-13T10:11:37.908Z,8.57
2022-10-13T10:14:30.668Z,10.70
2022-10-13T10:17:15.974Z,12.32
2022-10-13T10:20:30.587Z,10.10
2022-10-13T10:23:24.096Z,12.45
2022-10-13T10:26:04.637Z,10.13
2022-10-13T10:28:49.881Z,8.00
2022-10-13T10:31:41.587Z,9.20
2022-10-13T10:34:24.037Z,9.52
2022-10-13T10:37:25.204Z,8.48
2022-10-13T10:40:20.972Z,5.63
2022-10-13T10:42:58.686Z,6.07
2022-10-13T10:45:34.304Z,8.60
2022-10-13T10:48:25.520Z,9.13
2022-10-13T10:50:53.954Z,5.68
2022-10-13T10:53:37.426Z,7.70
2022-10-13T10:56:21.888Z,6.45
2022-10-13T10:59:17.723Z,5.78
2022-10-13T11:02:14.291Z,6.75
2022-10-13T11:04:49.432Z,4.43
2022-10-13T11:07:22.604Z,19.30
2022-10-13T11:09:50.566Z,5.80
2022-10-13T11:12:21.313Z,35.15
2022-10-13T11:15:12.756Z,7.40
2022-10-13T11:17:42.092Z,10.23
2022-10-13T11:20:20.696Z,6.45
2022-10-13T11:23:00.069Z,5.82
2022-10-13T11:25:40.534Z,5.88
2022-10-13T11:28:23.399Z,5.60
2022-10-13T11:31:17.283Z,8.60
2022-10-13T11:33:47.850Z,8.60
2022-10-13T11:36:32.831Z,7.22
2022-10-13T11:39:21.318Z,10.52
2022-10-13T11:42:12.752Z,6.30
2022-10-13T11:44:58.964Z,7.95
2022-10-13T11:48:03.610Z,7.13
2022-10-13T11:50:57.827Z,7.07
2022-10-13T11:53:31.567Z,9.05
2022-10-13T11:56:03.248Z,10.50
2022-10-13T11:58:33.154Z,8.77
2022-10-13T12:01:04.402Z,11.90
2022-10-13T12:03:38.134Z,11.70
2022-10-13T12:06:33.795Z,6.65
2022-10-13T12:09:03.618Z,8.65
2022-10-13T12:11:37.894Z,11.57
2022-10-13T12:14:08.676Z,8.07
2022-10-13T12:16:36.190Z,5.28
2022-10-13T12:19:18.765Z,6.00
2022-10-13T12:22:02.089Z,7.43
2022-10-13T12:24:30.881Z,6.10
2022-10-13T12:26:59.780Z,6.32
2022-10-13T12:29:33.458Z,8.20
2022-10-13T12:32:03.199Z,12.98
2022-10-13T12:34:34.326Z,9.38
2022-10-13T12:37:05.844Z,10.30
2022-10-13T12:39:35.126Z,6.82
2022-10-13T12:42:06.720Z,6.40
2022-10-13T12:44:38.340Z,7.10
2022-10-13T12:47:05.574Z,6.60
2022-10-13T12:49:36.467Z,8.15
2022-10-13T12:52:06.442Z,6.25
2022-10-13T12:54:37.603Z,8.02
2022-10-13T12:57:20.993Z,6.47
2022-10-13T12:59:49.282Z,10.48
2022-10-13T13:02:27.140Z,6.63
2022-10-13T13:04:54.476Z,6.65
2022-10-13T13:07:29.986Z,7.65
2022-10-13T13:10:09.368Z,8.48
2022-10-13T13:12:37.586Z,7.38
2022-10-13T13:15:26.055Z,5.97
2022-10-13T13:17:58.951Z,9.68
2022-10-13T13:20:34.864Z,6.65
2022-10-13T13:23:02.526Z,6.60
2022-10-13T13:25:29.830Z,5.60
2022-10-13T13:27:57.139Z,6.65
2022-10-13T13:30:24.924Z,7.85
2022-10-13T13:32:52.183Z,7.35
2022-10-13T13:35:19.441Z,7.78
2022-10-13T13:37:51.550Z,6.32
2022-10-13T13:40:22.160Z,5.90
2022-10-13T13:42:49.708Z,7.13
2022-10-13T13:45:19.134Z,10.40
2022-10-13T13:47:46.800Z,6.47
2022-10-13T13:50:24.609Z,7.68
2022-10-13T13:52:57.127Z,7.95
2022-10-13T13:55:25.503Z,6.80
2022-10-13T13:57:52.667Z,5.72
2022-10-13T14:00:20.724Z,5.18
2022-10-13T14:02:55.961Z,7.10
2022-10-13T14:05:23.810Z,6.00
2022-10-13T14:07:54.706Z,6.07
2022-10-13T14:10:21.881Z,5.65
2022-10-13T14:12:49.332Z,5.72
2022-10-13T14:15:16.839Z,6.32
2022-10-13T14:17:44.331Z,8.38
2022-10-13T14:20:12.320Z,5.85
2022-10-13T14:22:40.399Z,8.65
2022-10-13T14:25:08.467Z,8.35
2022-10-13T14:27:37.125Z,5.50
2022-10-13T14:30:06.183Z,8.60
2022-10-13T14:32:34.144Z,8.70
2022-10-13T14:35:01.653Z,7.50
2022-10-13T14:37:33.029Z,9.23
2022-10-13T14:40:01.509Z,11.52
2022-10-13T14:42:29.457Z,8.75
2022-10-13T14:44:56.567Z,10.68
2022-10-13T14:47:24.108Z,8.57
2022-10-13T14:49:51.514Z,7.55
2022-10-13T14:52:18.774Z,8.00
2022-10-13T14:54:45.936Z,9.90
2022-10-13T14:57:16.067Z,12.18
2022-10-13T14:59:43.813Z,12.63
2022-10-13T15:02:11.626Z,8.50
2022-10-13T15:04:42.201Z,9.75
2022-10-13T15:07:09.401Z,9.80
2022-10-13T15:09:52.670Z,13.23
2022-10-13T15:12:24.235Z,10.30
2022-10-13T15:14:51.634Z,10.02
2022-10-13T15:17:18.932Z,12.48
2022-10-13T15:19:46.668Z,11.98
2022-10-13T15:22:14.020Z,19.20
2022-10-13T15:24:41.288Z,16.05
2022-10-13T15:27:08.706Z,13.15
2022-10-13T15:29:35.908Z,17.80
2022-10-13T15:32:12.238Z,15.82
2022-10-13T15:34:40.207Z,20.98
2022-10-13T15:37:07.926Z,15.98
2022-10-13T15:39:35.456Z,14.95
2022-10-13T15:42:03.797Z,13.27
2022-10-13T15:44:57.523Z,14.15
2022-10-13T15:47:21.224Z,16.35
2022-10-13T15:49:48.529Z,14.55
2022-10-13T15:52:15.999Z,16.55
2022-10-13T15:54:43.662Z,14.77
2022-10-13T15:57:11.375Z,12.63
2022-10-13T15:59:38.525Z,16.05
2022-10-13T16:02:05.796Z,18.88
2022-10-13T16:04:37.473Z,17.95
2022-10-13T16:07:05.375Z,13.88
2022-10-13T16:09:32.772Z,16.10
2022-10-13T16:12:00.082Z,17.85
2022-10-13T16:14:27.725Z,19.02
2022-10-13T16:16:54.913Z,20.27
2022-10-13T16:19:22.307Z,17.60
2022-10-13T16:21:49.675Z,19.08
2022-10-13T16:24:17.166Z,23.20
2022-10-13T16:26:44.372Z,20.48
2022-10-13T16:29:11.745Z,18.42
2022-10-13T16:31:38.939Z,20.85
2022-10-13T16:34:06.387Z,18.67
2022-10-13T16:36:33.676Z,16.85
2022-10-13T16:39:01.576Z,17.30
2022-10-13T16:41:28.743Z,25.25
2022-10-13T16:43:56.214Z,22.42
2022-10-13T16:46:23.641Z,22.83
2022-10-13T16:48:51.036Z,22.42
2022-10-13T16:51:23.703Z,25.50
2022-10-13T16:54:04.202Z,20.48
2022-10-13T16:56:32.075Z,24.38
2022-10-13T16:59:02.069Z,20.92
2022-10-13T17:01:30.647Z,26.98
2022-10-13T17:03:58.587Z,33.15
2022-10-13T17:06:28.563Z,26.45
2022-10-13T17:08:58.321Z,29.30
2022-10-13T17:11:28.131Z,21.63
2022-10-13T17:13:57.295Z,26.85
2022-10-13T17:16:25.847Z,25.33
2022-10-13T17:18:53.639Z,22.88
2022-10-13T17:21:22.197Z,25.67
2022-10-13T17:23:49.837Z,28.90
2022-10-13T17:26:18.220Z,27.25
2022-10-13T17:28:45.786Z,27.08
2022-10-13T17:31:20.528Z,26.35
2022-10-13T17:33:49.647Z,24.90
2022-10-13T17:36:19.319Z,27.55
2022-10-13T17:38:47.853Z,28.42
2022-10-13T17:41:16.005Z,35.08
2022-10-13T17:43:51.023Z,30.40
2022-10-13T17:49:09.996Z,31.50
2022-10-13T17:51:37.524Z,28.15
2022-10-13T17:54:05.263Z,35.58
2022-10-13T17:56:33.124Z,29.80
2022-10-13T17:59:01.055Z,29.50
2022-10-13T18:01:31.991Z,30.58
2022-10-13T18:04:02.245Z,29.60
2022-10-13T18:06:36.709Z,29.13
2022-10-13T18:09:06.798Z,28.27
2022-10-13T18:11:35.067Z,30.00
2022-10-13T18:14:02.294Z,35.03
2022-10-13T18:16:29.623Z,30.20
2022-10-13T18:18:57.012Z,34.38
2022-10-13T18:21:28.095Z,31.60
2022-10-13T18:23:57.323Z,32.25
2022-10-13T18:26:26.239Z,32.58
2022-10-13T18:28:53.690Z,31.70
2022-10-13T18:31:22.410Z,30.58
2022-10-13T18:33:52.037Z,30.42
2022-10-13T18:36:23.500Z,33.13
2022-10-13T18:38:51.986Z,28.58
2022-10-13T18:41:21.997Z,32.70
2022-10-13T18:43:50.063Z,32.03
2022-10-13T18:46:19.001Z,31.75
2022-10-13T18:48:48.314Z,31.15
2022-10-13T18:51:18.114Z,30.70
2022-10-13T18:53:48.219Z,30.45
2022-10-13T18:56:22.432Z,32.25
2022-10-13T18:58:51.939Z,30.23
2022-10-13T19:01:23.916Z,35.00
2022-10-13T19:03:52.706Z,35.85
2022-10-13T19:06:28.062Z,31.17
2022-10-13T19:09:07.811Z,35.42
2022-10-13T19:11:37.298Z,33.55
2022-10-13T19:14:07.081Z,35.28
2022-10-13T19:16:37.239Z,39.85
2022-10-13T19:19:05.358Z,37.50
2022-10-13T19:21:32.848Z,32.45
2022-10-13T19:24:00.893Z,30.90
2022-10-13T19:26:32.356Z,32.08
2022-10-13T19:29:08.541Z,27.25
2022-10-13T19:31:37.892Z,31.70
2022-10-13T19:34:08.513Z,34.13
2022-10-13T19:36:39.623Z,26.50
2022-10-13T19:39:12.853Z,26.50
2022-10-13T19:41:42.390Z,29.48
2022-10-13T19:44:10.010Z,26.75
2022-10-13T19:46:41.999Z,25.20
2022-10-13T19:49:12.572Z,23.55
2022-10-13T19:51:45.926Z,24.83
2022-10-13T19:54:14.108Z,22.50
2022-10-13T19:56:47.378Z,22.58
2022-10-13T19:59:15.685Z,21.67
2022-10-13T20:01:43.207Z,21.70
2022-10-13T20:04:14.292Z,21.70
2022-10-13T20:06:44.686Z,23.58
2022-10-13T20:09:12.223Z,17.98
2022-10-13T20:11:39.995Z,20.10
2022-10-13T20:14:07.530Z,20.90
2022-10-13T20:16:35.006Z,21.80
2022-10-13T20:19:02.280Z,21.00
2022-10-13T20:21:30.153Z,27.35
2022-10-13T20:23:57.830Z,17.85
2022-10-13T20:26:25.958Z,21.15
2022-10-13T20:28:54.511Z,23.38
2022-10-13T20:31:22.779Z,20.20
2022-10-13T20:33:57.771Z,19.13
2022-10-13T20:36:36.054Z,17.48
2022-10-13T20:39:05.839Z,17.27
2022-10-13T20:41:33.923Z,17.70
2022-10-13T20:44:01.835Z,20.75
2022-10-13T20:46:31.386Z,24.38
2022-10-13T20:49:10.582Z,20.17
2022-10-13T20:51:39.289Z,20.38
2022-10-13T20:54:08.051Z,22.85
2022-10-13T20:56:35.940Z,21.45
2022-10-13T20:59:05.098Z,26.58
2022-10-13T21:01:33.445Z,26.80
2022-10-13T21:04:00.661Z,30.65
2022-10-13T21:06:27.867Z,26.13
2022-10-13T21:08:57.044Z,30.10
2022-10-13T21:11:25.039Z,34.33
2022-10-13T21:13:53.716Z,30.30
2022-10-13T21:16:27.162Z,25.85
2022-10-13T21:18:57.305Z,27.77
2022-10-13T21:21:27.915Z,26.65
2022-10-13T21:23:58.044Z,26.17
2022-10-13T21:26:27.414Z,29.05
2022-10-13T21:28:55.205Z,24.13
2022-10-13T21:31:24.337Z,25.88
2022-10-13T21:33:52.195Z,24.67
2022-10-13T21:36:20.931Z,23.95
2022-10-13T21:38:51.745Z,24.60
2022-10-13T21:41:19.581Z,25.60
2022-10-13T21:43:47.251Z,21.83
2022-10-13T21:46:34.070Z,22.58
2022-10-13T21:49:03.607Z,25.27
2022-10-13T21:51:33.623Z,24.58
2022-10-13T21:54:05.139Z,21.40
2022-10-13T21:56:33.141Z,19.67
2022-10-13T21:59:01.296Z,25.65
2022-10-13T22:01:28.933Z,23.00
2022-10-13T22:04:00.876Z,21.40
2022-10-13T22:06:29.491Z,22.23
2022-10-13T22:08:58.932Z,20.63
2022-10-13T22:11:30.108Z,19.67
2022-10-13T22:13:58.173Z,18.75
2022-10-13T22:16:28.723Z,21.88
2022-10-13T22:18:57.743Z,19.05
2022-10-13T22:21:28.019Z,16.63
2022-10-13T22:24:00.694Z,19.77
2022-10-13T22:26:31.395Z,21.10
2022-10-13T22:29:00.273Z,16.67
2022-10-13T22:31:28.302Z,18.30
2022-10-13T22:33:55.807Z,17.58
2022-10-13T22:36:24.732Z,18.98
2022-10-13T22:38:53.979Z,19.25
2022-10-13T22:41:21.765Z,16.88
2022-10-13T22:43:53.823Z,18.63
2022-10-13T22:46:24.085Z,15.63
2022-10-13T22:48:51.737Z,19.33
2022-10-13T22:51:22.029Z,14.90
2022-10-13T22:53:50.343Z,16.52
2022-10-13T22:56:23.403Z,16.80
2022-10-13T22:58:52.733Z,16.02
2022-10-13T23:01:21.572Z,20.77
2022-10-13T23:03:54.278Z,16.38
2022-10-13T23:06:24.858Z,17.45
2022-10-13T23:08:52.342Z,16.38
2022-10-13T23:11:20.161Z,15.13
2022-10-13T23:13:47.930Z,17.58
2022-10-13T23:16:19.005Z,16.85
2022-10-13T23:18:46.724Z,16.83
2022-10-13T23:21:26.312Z,16.08
2022-10-13T23:24:12.379Z,18.17
2022-10-13T23:26:39.771Z,21.88
2022-10-13T23:29:07.064Z,18.17
2022-10-13T23:31:34.383Z,18.23
2022-10-13T23:34:02.083Z,18.33
2022-10-13T23:36:31.909Z,21.00
2022-10-13T23:39:05.157Z,17.95
2022-10-13T23:41:34.307Z,17.30
2022-10-13T23:44:01.562Z,18.30
2022-10-13T23:46:29.300Z,15.68
2022-10-13T23:48:57.013Z,16.30
2022-10-13T23:51:25.592Z,17.08
2022-10-13T23:53:53.503Z,15.25
2022-10-13T23:56:21.639Z,16.75
2022-10-13T23:58:49.365Z,18.77
